Time;durP1;ratioP1;P1;durP2;ratioP2;P2;SDS_P1;SDS_P2;PMS_P1;PMS_P2;Temp;Humidity;BMP_temperature;BMP_pressure;BME280_temperature;BME280_humidity;BME280_pressure;Samples;Min_cycle;Max_cycle;Signal;HPM_P1;HPM_P2
2024/03/03 00:00:59;;;;;;;4.43;2.33;;;;;;;15.21;54.36;99850.75;5051879;28;20556;-47
2024/03/03 00:03:24;;;;;;;3.97;2.50;;;;;;;14.89;55.81;99847.94;5052799;28;20045;-45
2024/03/03 00:05:49;;;;;;;4.28;2.63;;;;;;;14.70;55.95;99849.22;5052679;28;20037;-49
2024/03/03 00:08:15;;;;;;;3.63;2.42;;;;;;;14.67;56.20;99850.13;5053002;28;20132;-49
2024/03/03 00:10:40;;;;;;;4.25;2.38;;;;;;;14.75;56.20;99857.88;5035021;28;20029;-46
2024/03/03 00:13:05;;;;;;;5.82;2.50;;;;;;;15.09;55.29;99851.00;5052738;28;20036;-45
2024/03/03 00:15:31;;;;;;;3.50;2.33;;;;;;;14.75;56.01;99848.22;5053184;28;20041;-46
2024/03/03 00:17:56;;;;;;;4.03;2.20;;;;;;;14.82;55.91;99859.47;5052561;28;20124;-46
2024/03/03 00:20:21;;;;;;;3.60;2.30;;;;;;;14.83;56.16;99863.81;5053248;28;20407;-44
2024/03/03 00:22:47;;;;;;;3.88;2.40;;;;;;;14.45;56.89;99859.31;5053689;28;20110;-48
2024/03/03 00:25:12;;;;;;;4.32;2.50;;;;;;;14.78;56.03;99857.78;5053403;28;20546;-46
2024/03/03 00:27:37;;;;;;;3.90;2.40;;;;;;;14.91;55.69;99860.13;5058045;28;20029;-46
2024/03/03 00:30:03;;;;;;;3.95;2.45;;;;;;;14.85;55.97;99865.50;5062945;28;20087;-47
2024/03/03 00:32:28;;;;;;;3.83;2.17;;;;;;;14.92;55.66;99861.88;5056572;28;20043;-46
2024/03/03 00:34:53;;;;;;;4.15;2.47;;;;;;;15.19;54.91;99870.91;5054884;28;20071;-47
2024/03/03 00:37:19;;;;;;;3.30;2.20;;;;;;;15.33;54.22;99865.38;5053879;28;20069;-48
2024/03/03 00:39:45;;;;;;;3.60;2.25;;;;;;;15.19;54.68;99864.78;5052486;28;20070;-48
2024/03/03 00:42:10;;;;;;;5.53;2.40;;;;;;;15.05;55.09;99867.75;5051698;28;20029;-47
2024/03/03 00:44:36;;;;;;;4.53;2.30;;;;;;;15.42;54.01;99868.69;5052737;28;20099;-49
2024/03/03 00:47:01;;;;;;;4.50;2.45;;;;;;;14.98;55.21;99871.38;5052205;28;20025;-47
2024/03/03 00:49:26;;;;;;;4.90;2.30;;;;;;;15.18;54.62;99860.47;5052705;28;20033;-46
2024/03/03 00:51:52;;;;;;;4.20;2.40;;;;;;;14.88;55.42;99862.81;5052065;28;20118;-51
2024/03/03 00:54:17;;;;;;;3.15;2.00;;;;;;;15.30;54.17;99855.81;5052105;28;20040;-47
2024/03/03 00:56:42;;;;;;;5.20;2.50;;;;;;;15.21;54.44;99858.63;5053157;28;20061;-47
2024/03/03 00:59:09;;;;;;;4.00;2.30;;;;;;;15.19;54.84;99857.78;5052304;28;20039;-46
2024/03/03 01:01:35;;;;;;;4.00;2.25;;;;;;;15.17;54.69;99859.59;5052636;28;20450;-46
2024/03/03 01:04:00;;;;;;;3.85;2.38;;;;;;;15.17;54.90;99859.59;5052045;28;20033;-46
2024/03/03 01:06:25;;;;;;;5.75;2.25;;;;;;;15.41;54.34;99860.81;5053244;28;20086;-47
2024/03/03 01:08:51;;;;;;;3.72;2.28;;;;;;;15.28;54.85;99862.00;5052945;28;20503;-48
2024/03/03 01:11:16;;;;;;;3.65;2.22;;;;;;;15.17;54.88;99866.63;5051592;28;20037;-50
2024/03/03 01:13:41;;;;;;;4.07;2.50;;;;;;;15.12;55.25;99856.22;5052217;28;20410;-47
2024/03/03 01:16:07;;;;;;;6.00;2.53;;;;;;;15.11;54.90;99865.00;5051786;28;20033;-48
2024/03/03 01:18:32;;;;;;;5.05;2.97;;;;;;;14.92;55.63;99867.13;5052875;28;20044;-45
2024/03/03 01:20:58;;;;;;;5.57;3.58;;;;;;;15.00;55.57;99866.97;5051709;28;20029;-45
2024/03/03 01:23:23;;;;;;;5.85;3.40;;;;;;;14.76;56.12;99867.47;5053335;28;20044;-45
2024/03/03 01:25:49;;;;;;;5.07;3.30;;;;;;;14.66;56.71;99864.13;5055204;28;20075;-46
2024/03/03 01:28:15;;;;;;;5.95;3.10;;;;;;;15.10;55.42;99858.00;5056294;28;20052;-45
2024/03/03 01:30:40;;;;;;;5.40;3.00;;;;;;;14.99;55.53;99858.22;5054553;28;20063;-48
2024/03/03 01:33:06;;;;;;;5.22;2.80;;;;;;;14.98;55.64;99860.88;5052435;28;20040;-48
2024/03/03 01:35:31;;;;;;;7.40;2.75;;;;;;;14.90;55.76;99862.78;5052488;28;20511;-53
2024/03/03 01:37:56;;;;;;;4.25;2.60;;;;;;;15.07;54.93;99851.94;5033735;28;20053;-48
2024/03/03 01:40:22;;;;;;;4.25;2.67;;;;;;;15.02;55.51;99862.53;5052092;28;20033;-45
2024/03/03 01:42:47;;;;;;;5.07;2.80;;;;;;;14.86;55.73;99863.75;5051198;28;20557;-46
2024/03/03 01:45:22;;;;;;;4.40;2.80;;;;;;;14.72;56.03;99863.16;5033651;28;20045;-47
2024/03/03 01:47:49;;;;;;;4.60;3.10;;;;;;;14.83;56.02;99867.28;5053406;28;20124;-45
2024/03/03 01:50:15;;;;;;;4.97;3.20;;;;;;;15.04;55.42;99858.13;5051656;28;20040;-46
2024/03/03 01:52:41;;;;;;;5.30;3.30;;;;;;;15.09;55.32;99860.66;5051461;28;20029;-49
2024/03/03 01:55:07;;;;;;;5.22;3.60;;;;;;;15.09;55.25;99873.78;5050656;28;20041;-45
2024/03/03 01:57:32;;;;;;;7.75;4.05;;;;;;;14.87;56.00;99868.13;5051070;28;20037;-48
2024/03/03 01:59:58;;;;;;;6.63;4.10;;;;;;;15.06;55.67;99872.09;5050748;28;20175;-46
2024/03/03 02:02:27;;;;;;;6.68;4.68;;;;;;;14.96;55.96;99873.16;5053487;28;20120;-46
2024/03/03 02:04:53;;;;;;;7.00;4.30;;;;;;;15.22;54.62;99877.88;5055204;28;20514;-46
2024/03/03 02:07:20;;;;;;;6.50;3.70;;;;;;;15.11;55.19;99880.75;5054733;28;20045;-46
2024/03/03 02:09:46;;;;;;;5.20;3.30;;;;;;;15.17;54.90;99877.97;5054501;28;20052;-44
2024/03/03 02:12:12;;;;;;;4.20;2.53;;;;;;;14.92;55.59;99879.38;5053911;28;20094;-45
2024/03/03 02:14:37;;;;;;;4.10;2.65;;;;;;;14.99;55.05;99878.38;5055035;28;20036;-46
2024/03/03 02:17:03;;;;;;;4.80;2.65;;;;;;;14.90;55.60;99882.03;5053299;28;20033;-46
2024/03/03 02:19:36;;;;;;;4.45;3.00;;;;;;;14.48;57.60;99877.59;5054928;28;20037;-46
2024/03/03 02:22:02;;;;;;;4.53;2.70;;;;;;;14.53;57.69;99875.75;5053685;28;20045;-46
2024/03/03 02:24:27;;;;;;;4.70;2.97;;;;;;;14.62;57.21;99875.59;5055650;28;20040;-46
2024/03/03 02:26:53;;;;;;;5.65;2.90;;;;;;;14.71;56.58;99878.03;5055167;28;20491;-46
2024/03/03 02:29:21;;;;;;;5.25;3.10;;;;;;;14.71;56.67;99878.03;5054035;28;20044;-48
2024/03/03 02:31:46;;;;;;;5.68;3.00;;;;;;;14.60;56.90;99885.25;5053671;28;20033;-47
2024/03/03 02:34:11;;;;;;;4.10;2.60;;;;;;;14.67;57.10;99873.75;5053473;28;20125;-46
2024/03/03 02:36:37;;;;;;;4.00;2.45;;;;;;;14.65;57.25;99872.91;5054896;28;20039;-45
2024/03/03 02:39:03;;;;;;;4.75;2.65;;;;;;;14.69;57.13;99878.97;5053995;28;20183;-47
2024/03/03 02:41:28;;;;;;;4.28;2.50;;;;;;;14.69;57.21;99877.22;5054032;28;20029;-46
2024/03/03 02:43:54;;;;;;;4.32;2.50;;;;;;;14.65;57.34;99887.78;5055430;28;20040;-46
2024/03/03 02:46:19;;;;;;;5.25;2.53;;;;;;;14.48;57.86;99901.19;5055426;28;20033;-46
2024/03/03 02:48:44;;;;;;;4.10;2.60;;;;;;;14.49;58.81;99888.06;5054570;28;20029;-47
2024/03/03 02:51:10;;;;;;;7.22;4.63;;;;;;;14.41;58.94;99892.56;5053130;28;20043;-47
2024/03/03 02:53:35;;;;;;;9.80;5.32;;;;;;;14.37;59.74;99900.50;5055098;28;20717;-47
2024/03/03 02:56:00;;;;;;;11.07;5.57;;;;;;;14.35;60.06;99905.75;5055011;28;20052;-45
2024/03/03 02:58:27;;;;;;;12.55;6.10;;;;;;;14.18;61.32;99902.56;5055270;28;20094;-44
2024/03/03 03:00:53;;;;;;;14.00;7.13;;;;;;;14.03;62.46;99893.19;5054531;28;20043;-44
2024/03/03 03:03:18;;;;;;;13.45;7.20;;;;;;;14.01;62.91;99886.25;5055711;28;20056;-46
2024/03/03 03:05:44;;;;;;;12.93;6.93;;;;;;;13.85;64.01;99890.84;5054209;28;20029;-46
2024/03/03 03:08:10;;;;;;;13.75;7.15;;;;;;;14.10;63.11;99884.34;5035311;28;20044;-44
2024/03/03 03:10:36;;;;;;;13.77;7.15;;;;;;;14.05;63.27;99888.81;5053769;28;20036;-47
2024/03/03 03:13:01;;;;;;;11.40;7.20;;;;;;;14.03;63.18;99890.56;5051635;28;20033;-47
2024/03/03 03:15:26;;;;;;;13.07;7.70;;;;;;;13.99;63.59;99890.66;5053561;28;20063;-45
2024/03/03 03:17:52;;;;;;;13.02;7.53;;;;;;;13.89;63.88;99891.69;5052893;28;20083;-45
2024/03/03 03:20:17;;;;;;;12.98;7.30;;;;;;;13.72;64.51;99897.19;5052383;28;20037;-45
2024/03/03 03:22:42;;;;;;;14.45;7.55;;;;;;;13.67;64.58;99888.53;5052828;28;20034;-45
2024/03/03 03:25:08;;;;;;;13.80;7.00;;;;;;;13.71;64.00;99887.63;5034265;28;20032;-47
2024/03/03 03:27:33;;;;;;;14.80;7.40;;;;;;;13.55;65.45;99901.78;5053130;28;20124;-46
2024/03/03 03:29:58;;;;;;;12.73;6.95;;;;;;;13.53;65.50;99891.38;5052117;28;20043;-46
2024/03/03 03:32:24;;;;;;;11.50;6.30;;;;;;;13.58;65.31;99892.16;5052785;28;20045;-46
2024/03/03 03:34:49;;;;;;;9.88;5.43;;;;;;;13.59;65.95;99893.91;5053516;28;20037;-45
2024/03/03 03:37:15;;;;;;;8.60;4.75;;;;;;;13.70;65.71;99898.97;5052838;28;20514;-47
2024/03/03 03:39:41;;;;;;;6.85;4.10;;;;;;;13.82;64.93;99890.94;5052462;28;20056;-46
2024/03/03 03:42:07;;;;;;;7.18;3.90;;;;;;;13.96;64.09;99894.22;5051668;28;20106;-47
2024/03/03 03:44:33;;;;;;;5.45;3.42;;;;;;;14.11;63.18;99890.44;5052609;28;20535;-47
2024/03/03 03:46:58;;;;;;;6.65;4.07;;;;;;;14.19;62.79;99899.94;5052393;28;20094;-47
2024/03/03 03:49:24;;;;;;;7.05;3.95;;;;;;;14.20;62.24;99901.66;5052507;28;20112;-47
2024/03/03 03:51:49;;;;;;;5.35;3.70;;;;;;;14.36;61.58;99899.63;5052154;28;20136;-47
2024/03/03 03:54:14;;;;;;;5.07;3.40;;;;;;;14.39;61.30;99906.63;5051904;28;20039;-47
2024/03/03 03:56:40;;;;;;;6.30;3.38;;;;;;;14.44;61.04;99902.16;5052753;28;20503;-47
2024/03/03 03:59:05;;;;;;;5.35;3.13;;;;;;;14.51;60.48;99909.03;5052647;28;20041;-46
2024/03/03 04:01:31;;;;;;;5.20;3.40;;;;;;;14.53;60.20;99902.84;5053107;28;20404;-46
2024/03/03 04:03:57;;;;;;;5.18;3.22;;;;;;;14.32;60.08;99908.44;5052946;28;20045;-44
2024/03/03 04:06:24;;;;;;;5.40;3.50;;;;;;;14.53;59.57;99918.59;5053369;28;20029;-46
2024/03/03 04:08:49;;;;;;;4.72;3.15;;;;;;;14.63;59.35;99902.69;5053672;28;20037;-46
2024/03/03 04:11:14;;;;;;;5.07;3.83;;;;;;;14.49;59.58;99914.28;5050524;28;20048;-47
2024/03/03 04:13:40;;;;;;;5.38;3.70;;;;;;;14.64;59.06;99912.31;5052189;28;20048;-47
2024/03/03 04:16:06;;;;;;;6.38;3.75;;;;;;;14.57;59.19;99907.16;5051043;28;20083;-48
2024/03/03 04:18:32;;;;;;;8.02;3.60;;;;;;;14.57;59.15;99909.78;5052172;28;20040;-44
2024/03/03 04:20:58;;;;;;;6.70;3.50;;;;;;;14.60;59.07;99914.09;5050933;28;20622;-44
2024/03/03 04:23:23;;;;;;;5.57;3.17;;;;;;;14.56;58.86;99915.06;5051875;28;20060;-48
2024/03/03 04:25:48;;;;;;;5.28;3.08;;;;;;;14.47;58.83;99916.06;5051624;28;20112;-46
2024/03/03 04:28:13;;;;;;;5.45;3.22;;;;;;;14.36;58.95;99911.88;5051578;28;20120;-45
2024/03/03 04:30:39;;;;;;;6.00;3.10;;;;;;;14.25;59.08;99925.19;5051954;28;20099;-45
2024/03/03 04:33:04;;;;;;;5.50;3.60;;;;;;;14.12;59.70;99921.88;5050554;28;20033;-44
2024/03/03 04:35:30;;;;;;;7.30;3.67;;;;;;;13.94;59.81;99926.53;5051564;28;20759;-47
2024/03/03 04:37:55;;;;;;;5.65;3.50;;;;;;;13.99;59.73;99930.81;5050841;28;20527;-45
2024/03/03 04:40:20;;;;;;;5.25;3.50;;;;;;;13.87;60.07;99944.13;5051907;28;20041;-46
2024/03/03 04:42:46;;;;;;;7.15;3.92;;;;;;;13.84;60.22;99936.31;5052027;28;20056;-46
2024/03/03 04:45:12;;;;;;;6.22;3.90;;;;;;;13.84;60.42;99946.78;5034102;28;20040;-45
2024/03/03 04:47:38;;;;;;;6.22;3.90;;;;;;;13.80;60.70;99943.34;5052480;28;20033;-46
2024/03/03 04:50:05;;;;;;;5.57;3.72;;;;;;;13.79;60.87;99946.84;5051235;28;20037;-44
2024/03/03 04:52:30;;;;;;;8.00;3.95;;;;;;;13.65;61.53;99933.09;5033593;28;20037;-44
2024/03/03 04:54:56;;;;;;;6.22;3.72;;;;;;;13.84;61.41;99938.06;5051330;28;20568;-47
2024/03/03 04:57:21;;;;;;;5.88;3.83;;;;;;;13.86;61.39;99938.88;5051144;28;20040;-45
2024/03/03 04:59:46;;;;;;;7.15;4.53;;;;;;;13.78;61.82;99944.25;5051449;28;20052;-46
2024/03/03 05:02:12;;;;;;;8.02;4.70;;;;;;;14.00;61.20;99948.28;5050283;28;20116;-47
2024/03/03 05:04:37;;;;;;;9.30;5.07;;;;;;;14.04;61.07;99956.94;5052020;28;20029;-45
2024/03/03 05:07:03;;;;;;;9.07;4.93;;;;;;;14.14;60.46;99959.44;5052024;28;20043;-45
2024/03/03 05:09:28;;;;;;;7.30;5.00;;;;;;;14.06;60.68;99950.81;5034198;28;20116;-44
2024/03/03 05:11:53;;;;;;;8.48;4.68;;;;;;;14.21;59.98;99955.78;5051018;28;20136;-47
2024/03/03 05:14:18;;;;;;;6.88;4.68;;;;;;;14.32;59.63;99967.88;5051551;28;20080;-46
2024/03/03 05:16:44;;;;;;;7.95;4.78;;;;;;;14.29;59.43;99971.41;5053044;28;20043;-44
2024/03/03 05:19:09;;;;;;;8.32;4.60;;;;;;;14.31;59.69;99964.41;5052101;28;20043;-45
2024/03/03 05:21:35;;;;;;;7.72;4.90;;;;;;;14.26;59.64;99970.63;5053436;28;20552;-44
2024/03/03 05:24:01;;;;;;;10.60;5.25;;;;;;;14.26;59.37;99970.63;5054307;28;20044;-44
2024/03/03 05:26:26;;;;;;;7.55;4.97;;;;;;;14.30;58.95;99969.66;5054904;28;20089;-44
2024/03/03 05:28:52;;;;;;;8.75;4.80;;;;;;;14.29;58.90;99967.94;5052308;28;20584;-46
2024/03/03 05:31:17;;;;;;;8.40;5.32;;;;;;;14.21;59.21;99975.91;5049510;28;20040;-46
2024/03/03 05:33:43;;;;;;;10.75;5.63;;;;;;;14.29;58.68;99976.66;5051066;28;20033;-46
2024/03/03 05:36:08;;;;;;;10.45;5.72;;;;;;;14.24;59.11;99986.34;5050414;28;20048;-46
2024/03/03 05:38:33;;;;;;;8.98;5.50;;;;;;;14.21;58.69;99991.63;5054763;28;20178;-45
2024/03/03 05:40:58;;;;;;;10.30;5.60;;;;;;;14.12;58.89;99990.03;5053807;28;20037;-47
2024/03/03 05:43:24;;;;;;;8.05;5.50;;;;;;;14.10;59.06;99990.94;5055011;28;20040;-47
2024/03/03 05:45:50;;;;;;;10.25;6.30;;;;;;;13.84;60.72;99987.84;5055815;28;20048;-46
2024/03/03 05:48:15;;;;;;;9.13;5.72;;;;;;;13.80;60.96;99993.13;5055055;28;20071;-45
2024/03/03 05:50:41;;;;;;;11.90;6.00;;;;;;;13.96;60.39;99991.16;5054164;28;20051;-45
2024/03/03 05:53:06;;;;;;;10.10;5.72;;;;;;;13.99;60.45;100001.59;5053570;28;20407;-46
2024/03/03 05:55:31;;;;;;;10.15;5.47;;;;;;;14.16;60.03;100004.81;5054199;28;20056;-45
2024/03/03 05:57:57;;;;;;;8.57;5.65;;;;;;;14.17;59.73;100008.31;5053657;28;20029;-46
2024/03/03 06:00:22;;;;;;;8.25;5.45;;;;;;;14.20;59.66;100016.13;5053820;28;20499;-45
2024/03/03 06:02:48;;;;;;;7.97;5.45;;;;;;;14.22;59.70;100014.34;5053403;28;20033;-46
2024/03/03 06:05:13;;;;;;;8.48;5.50;;;;;;;14.28;59.49;100019.50;5053700;28;20045;-46
2024/03/03 06:07:39;;;;;;;9.32;5.63;;;;;;;14.26;59.50;100018.66;5054353;28;20033;-46
2024/03/03 06:10:04;;;;;;;10.13;5.43;;;;;;;14.24;59.52;100015.19;5053104;28;20033;-47
2024/03/03 06:12:30;;;;;;;8.73;5.38;;;;;;;14.22;59.57;100030.94;5053503;28;20048;-44
2024/03/03 06:14:55;;;;;;;7.70;4.90;;;;;;;14.30;59.39;100024.72;5053474;28;20433;-46
2024/03/03 06:17:21;;;;;;;7.35;4.88;;;;;;;14.26;59.57;100023.91;5054057;28;20453;-46
2024/03/03 06:19:46;;;;;;;7.65;4.70;;;;;;;14.27;59.48;100022.16;5054199;28;20131;-45
2024/03/03 06:22:12;;;;;;;7.90;5.25;;;;;;;14.26;59.70;100031.78;5053182;28;20033;-46
2024/03/03 06:24:38;;;;;;;8.95;5.47;;;;;;;14.25;59.60;100026.56;5054382;28;20075;-46
2024/03/03 06:27:03;;;;;;;8.93;5.43;;;;;;;14.25;59.52;100037.91;5053671;28;20033;-47
2024/03/03 06:29:29;;;;;;;8.15;5.05;;;;;;;14.27;59.86;100040.50;5054029;28;20063;-48
2024/03/03 06:31:54;;;;;;;8.15;5.22;;;;;;;14.26;59.53;100052.75;5051909;28;20071;-47
2024/03/03 06:34:19;;;;;;;12.98;5.50;;;;;;;14.23;59.68;100047.53;5054253;28;20428;-45
2024/03/03 06:36:45;;;;;;;8.60;5.43;;;;;;;14.19;59.82;100046.72;5053879;28;20458;-44
2024/03/03 06:39:12;;;;;;;8.45;5.45;;;;;;;14.16;59.90;100059.00;5053642;28;20048;-47
2024/03/03 06:41:38;;;;;;;8.57;5.43;;;;;;;14.20;59.95;100058.09;5053344;28;20041;-47
2024/03/03 06:44:05;;;;;;;11.35;6.10;;;;;;;14.20;59.97;100053.72;5055509;28;20099;-47
2024/03/03 06:46:30;;;;;;;9.93;6.30;;;;;;;14.22;60.00;100061.53;5054139;28;20565;-44
2024/03/03 06:48:56;;;;;;;9.88;6.35;;;;;;;14.20;60.12;100069.44;5053329;28;20041;-48
2024/03/03 06:51:21;;;;;;;10.25;6.40;;;;;;;14.26;60.00;100067.63;5053196;28;20048;-48
2024/03/03 06:53:46;;;;;;;10.82;6.03;;;;;;;14.31;59.97;100069.28;5054677;28;20044;-48
2024/03/03 06:56:16;;;;;;;10.70;6.70;;;;;;;14.29;60.10;100080.66;5053160;28;20543;-46
2024/03/03 06:58:44;;;;;;;9.75;6.32;;;;;;;14.28;59.63;100087.66;5053380;28;20075;-45
2024/03/03 07:01:10;;;;;;;10.25;6.57;;;;;;;14.42;59.30;100087.50;5052299;28;20033;-48
2024/03/03 07:06:13;;;;;;;11.82;7.40;;;;;;;14.34;59.71;100092.81;5053155;28;20051;-46
2024/03/03 07:08:38;;;;;;;11.25;6.95;;;;;;;14.37;59.39;100105.94;5053438;28;20120;-48
2024/03/03 07:11:03;;;;;;;10.32;6.43;;;;;;;14.38;59.63;100102.44;5052354;28;20041;-45
2024/03/03 07:13:29;;;;;;;11.38;7.30;;;;;;;14.42;59.61;100096.25;5053065;28;20033;-51
2024/03/03 07:15:54;;;;;;;11.68;7.03;;;;;;;14.38;59.71;100093.69;5052751;28;20056;-47
2024/03/03 07:18:19;;;;;;;10.88;6.75;;;;;;;14.45;59.18;100096.22;5053558;28;20411;-47
2024/03/03 07:20:45;;;;;;;13.55;6.90;;;;;;;14.46;59.05;100095.28;5053984;28;20377;-45
2024/03/03 07:23:10;;;;;;;9.98;6.43;;;;;;;14.51;59.06;100103.13;5053199;28;20068;-47
2024/03/03 07:25:35;;;;;;;10.15;7.07;;;;;;;14.49;59.44;100100.50;5053975;28;20037;-45
2024/03/03 07:28:00;;;;;;;11.80;6.57;;;;;;;14.54;59.20;100100.44;5052382;28;20439;-45
2024/03/03 07:30:26;;;;;;;10.75;6.72;;;;;;;14.43;59.55;100092.72;5052205;28;20037;-47
2024/03/03 07:32:52;;;;;;;9.80;6.22;;;;;;;14.45;59.50;100100.59;5052501;28;20037;-47
2024/03/03 07:35:17;;;;;;;9.60;6.30;;;;;;;14.42;59.46;100087.50;5052134;28;20033;-47
2024/03/03 07:37:42;;;;;;;11.73;7.03;;;;;;;14.51;59.45;100084.75;5053040;28;20037;-49
2024/03/03 07:40:09;;;;;;;10.13;6.50;;;;;;;14.56;59.37;100089.03;5051667;28;20093;-48
2024/03/03 07:42:35;;;;;;;9.05;6.38;;;;;;;14.58;59.62;100089.88;5052203;28;20189;-47
2024/03/03 07:45:00;;;;;;;10.10;6.75;;;;;;;14.55;59.76;100096.94;5052229;28;20123;-44
2024/03/03 07:47:26;;;;;;;11.45;6.50;;;;;;;14.51;59.81;100090.88;5053297;28;20044;-47
2024/03/03 07:49:51;;;;;;;11.90;6.72;;;;;;;14.72;59.38;100089.66;5054211;28;20040;-46
2024/03/03 07:52:17;;;;;;;10.13;6.45;;;;;;;14.86;59.15;100095.56;5052623;28;20047;-45
2024/03/03 07:54:42;;;;;;;10.00;6.50;;;;;;;14.84;59.21;100099.09;5053654;28;20571;-48
2024/03/03 07:57:07;;;;;;;10.55;6.78;;;;;;;14.86;58.79;100106.06;5053051;28;20070;-47
2024/03/03 07:59:33;;;;;;;14.00;7.07;;;;;;;14.83;58.55;100113.97;5053026;28;20102;-48
2024/03/03 08:01:58;;;;;;;11.55;7.03;;;;;;;14.95;57.58;100119.00;5052366;28;20032;-45
2024/03/03 08:04:24;;;;;;;10.93;6.80;;;;;;;15.02;57.46;100125.91;5052881;28;20037;-45
2024/03/03 08:06:49;;;;;;;12.13;6.50;;;;;;;15.10;57.38;100125.78;5052768;28;20037;-49
2024/03/03 08:09:14;;;;;;;11.23;7.03;;;;;;;15.27;56.98;100120.22;5052289;28;20035;-47
2024/03/03 08:11:40;;;;;;;11.13;6.82;;;;;;;15.17;56.60;100109.03;5052799;28;20037;-44
2024/03/03 08:14:05;;;;;;;11.95;7.10;;;;;;;15.34;56.13;100117.47;5052925;28;20044;-47
2024/03/03 08:16:31;;;;;;;11.20;7.05;;;;;;;15.26;56.50;100115.84;5053957;28;20060;-44
2024/03/03 08:18:56;;;;;;;11.88;6.80;;;;;;;15.27;56.07;100120.22;5053901;28;20067;-45
2024/03/03 08:21:22;;;;;;;14.80;7.20;;;;;;;15.49;55.49;100133.84;5053464;28;20469;-44
2024/03/03 08:23:47;;;;;;;11.55;7.10;;;;;;;15.48;55.80;100142.63;5053203;28;20434;-47
2024/03/03 08:26:12;;;;;;;10.98;6.90;;;;;;;15.52;55.54;100149.53;5053873;28;20037;-46
2024/03/03 08:28:38;;;;;;;11.52;7.43;;;;;;;15.57;55.67;100148.59;5054252;28;20103;-45
2024/03/03 08:31:04;;;;;;;11.98;7.20;;;;;;;15.52;55.12;100149.53;5052855;28;20033;-45
2024/03/03 08:33:29;;;;;;;12.38;7.30;;;;;;;15.68;54.99;100151.00;5053481;28;20048;-47
2024/03/03 08:35:54;;;;;;;10.13;7.15;;;;;;;15.79;55.38;100154.34;5051480;28;20037;-48
2024/03/03 08:38:20;;;;;;;12.23;7.53;;;;;;;15.85;55.74;100153.34;5052277;28;20507;-47
2024/03/03 08:40:45;;;;;;;12.18;7.72;;;;;;;15.91;55.50;100151.47;5051816;28;20048;-48
2024/03/03 08:43:11;;;;;;;15.88;7.55;;;;;;;15.90;55.13;100162.00;5051808;28;20041;-50
2024/03/03 08:45:36;;;;;;;12.43;7.68;;;;;;;16.08;54.89;100154.63;5052922;28;20064;-45
2024/03/03 08:48:01;;;;;;;12.40;8.00;;;;;;;16.13;54.84;100147.50;5052540;28;20111;-46
2024/03/03 08:50:27;;;;;;;11.70;7.70;;;;;;;16.06;54.79;100148.50;5052601;28;20033;-45
2024/03/03 08:52:52;;;;;;;13.68;7.65;;;;;;;15.95;55.87;100147.00;5051152;28;20096;-45
2024/03/03 08:55:18;;;;;;;13.35;8.02;;;;;;;16.29;55.06;100144.53;5050806;28;20060;-47
2024/03/03 08:57:43;;;;;;;14.65;8.07;;;;;;;16.33;54.07;100141.81;5051630;28;20037;-45
2024/03/03 09:00:15;;;;;;;12.73;8.07;;;;;;;16.78;53.75;100141.69;5051522;28;20045;-52
2024/03/03 09:02:40;;;;;;;12.55;8.35;;;;;;;16.69;53.35;100142.78;5052055;28;20032;-46
2024/03/03 09:05:07;;;;;;;13.35;7.50;;;;;;;16.93;51.46;100141.34;5051974;28;20055;-49
2024/03/03 09:07:32;;;;;;;11.95;7.07;;;;;;;16.95;51.28;100142.19;5052416;28;20037;-48
2024/03/03 09:09:58;;;;;;;14.57;7.70;;;;;;;17.14;50.83;100138.16;5052446;28;20033;-46
2024/03/03 09:12:23;;;;;;;11.88;7.10;;;;;;;17.16;50.67;100141.63;5067504;22;20053;-41
2024/03/03 09:14:48;;;;;;;9.98;6.97;;;;;;;16.67;51.60;100143.72;5053537;28;20033;-42
2024/03/03 09:17:14;;;;;;;10.95;7.40;;;;;;;16.98;50.42;100142.94;5052931;28;20049;-43
2024/03/03 09:19:39;;;;;;;11.93;7.60;;;;;;;17.06;50.42;100140.13;5053575;28;20419;-43
2024/03/03 09:22:04;;;;;;;11.43;7.75;;;;;;;16.98;50.96;100144.72;5052509;28;20048;-41
2024/03/03 09:24:32;;;;;;;12.30;7.43;;;;;;;17.32;50.29;100134.22;5053392;28;20033;-45
2024/03/03 09:26:57;;;;;;;11.57;7.47;;;;;;;17.28;50.55;100140.44;5053187;28;20119;-42
2024/03/03 09:29:23;;;;;;;13.30;7.82;;;;;;;16.90;50.47;100138.75;5053760;28;20120;-41
2024/03/03 09:31:49;;;;;;;17.25;7.78;;;;;;;16.75;50.79;100136.50;5053716;28;20115;-45
2024/03/03 09:34:15;;;;;;;13.98;7.97;;;;;;;16.92;50.76;100143.09;5054314;28;20100;-42
2024/03/03 09:36:43;;;;;;;12.35;7.40;;;;;;;17.00;50.51;100138.53;5054608;28;20125;-42
2024/03/03 09:39:09;;;;;;;12.55;7.90;;;;;;;16.94;50.80;100136.03;5054837;28;20458;-42
2024/03/03 09:41:35;;;;;;;14.35;8.40;;;;;;;17.08;50.39;100132.22;5055991;28;20033;-41
2024/03/03 09:44:16;;;;;;;12.13;8.02;;;;;;;16.98;51.41;100126.28;5061559;28;20041;-44
2024/03/03 09:46:43;;;;;;;12.45;8.07;;;;;;;16.76;52.61;100132.97;5055468;28;20037;-43
2024/03/03 09:49:13;;;;;;;16.65;8.80;;;;;;;17.18;53.89;100128.44;5054890;28;20087;-43
2024/03/03 09:51:41;;;;;;;14.55;8.82;;;;;;;17.37;53.05;100132.31;5053450;28;20518;-44
2024/03/03 09:54:11;;;;;;;12.65;8.23;;;;;;;17.07;52.40;100135.75;5053571;28;20037;-44
2024/03/03 09:56:39;;;;;;;12.25;7.78;;;;;;;17.25;51.77;100130.00;5054072;28;20155;-43
2024/03/03 09:59:06;;;;;;;12.60;7.90;;;;;;;17.39;52.00;100133.13;5053628;28;20037;-42
2024/03/03 10:01:33;;;;;;;11.80;7.78;;;;;;;17.19;51.47;100127.53;5053209;28;20094;-42
2024/03/03 10:03:59;;;;;;;13.13;8.25;;;;;;;17.31;51.16;100127.22;5053469;28;20511;-45
2024/03/03 10:06:25;;;;;;;13.88;8.25;;;;;;;17.38;50.94;100129.63;5053942;28;20090;-44
2024/03/03 10:08:53;;;;;;;13.45;7.97;;;;;;;17.21;51.52;100121.31;5053805;28;20091;-45
2024/03/03 10:11:23;;;;;;;12.80;7.60;;;;;;;17.35;50.97;100126.22;5052698;28;20132;-45
2024/03/03 10:13:49;;;;;;;13.13;7.60;;;;;;;17.44;51.33;100133.91;5053815;28;20086;-42
2024/03/03 10:16:16;;;;;;;13.73;8.05;;;;;;;17.50;51.40;100132.88;5053605;28;20045;-44
2024/03/03 10:18:42;;;;;;;12.20;7.85;;;;;;;17.46;51.15;100145.25;5054629;28;20033;-43
2024/03/03 10:21:11;;;;;;;13.65;8.13;;;;;;;17.51;51.35;100151.25;5053454;28;20388;-42
2024/03/03 10:23:36;;;;;;;13.30;7.93;;;;;;;17.42;51.63;100146.25;5053630;28;20064;-43
2024/03/03 10:26:04;;;;;;;12.95;8.50;;;;;;;17.52;51.25;100146.84;5053252;28;20056;-41
2024/03/03 10:28:29;;;;;;;13.10;8.15;;;;;;;17.45;51.53;100149.66;5053619;28;20495;-43
2024/03/03 10:31:11;;;;;;;13.98;7.93;;;;;;;17.51;51.40;100153.88;5052606;28;20037;-41
2024/03/03 10:33:37;;;;;;;17.48;7.72;;;;;;;17.42;50.79;100151.50;5051698;28;20033;-46
2024/03/03 10:36:08;;;;;;;16.67;8.00;;;;;;;17.39;51.24;100157.72;5052517;28;20124;-40
2024/03/03 10:38:33;;;;;;;11.93;7.47;;;;;;;17.27;51.57;100167.69;5053004;28;20044;-42
2024/03/03 10:40:59;;;;;;;12.27;7.75;;;;;;;17.28;51.61;100170.31;5052089;28;20033;-42
2024/03/03 10:43:24;;;;;;;12.60;8.30;;;;;;;17.31;51.94;100164.97;5052916;28;20095;-43
2024/03/03 10:45:51;;;;;;;13.35;8.07;;;;;;;17.40;51.88;100162.09;5052862;28;20415;-47
2024/03/03 10:48:16;;;;;;;14.48;7.80;;;;;;;17.64;50.98;100165.00;5052347;28;20032;-44
2024/03/03 10:50:45;;;;;;;12.93;7.78;;;;;;;17.84;51.26;100167.97;5052869;28;20037;-42
2024/03/03 10:53:11;;;;;;;11.32;7.57;;;;;;;17.93;51.07;100170.34;5053303;28;20037;-42
2024/03/03 10:55:38;;;;;;;14.38;7.65;;;;;;;17.96;50.04;100175.56;5054084;28;20048;-42
2024/03/03 10:58:05;;;;;;;12.07;7.70;;;;;;;17.98;49.76;100170.25;5052474;28;20044;-46
2024/03/03 11:00:31;;;;;;;12.50;7.40;;;;;;;18.13;50.01;100162.75;5053913;28;20037;-41
2024/03/03 11:02:58;;;;;;;12.95;7.55;;;;;;;18.30;49.51;100162.25;5053949;28;20486;-41
2024/03/03 11:05:23;;;;;;;12.93;7.70;;;;;;;17.99;48.85;100157.00;5054310;28;20033;-42
2024/03/03 11:07:50;;;;;;;11.45;6.85;;;;;;;18.34;48.54;100174.47;5052612;28;20545;-44
2024/03/03 11:10:15;;;;;;;11.35;7.43;;;;;;;18.23;48.93;100166.00;5054066;28;20040;-42
2024/03/03 11:12:43;;;;;;;11.68;7.10;;;;;;;18.16;48.96;100162.69;5051530;28;20056;-42
2024/03/03 11:15:12;;;;;;;9.73;6.35;;;;;;;18.16;48.42;100161.81;5053471;28;20078;-43
2024/03/03 11:17:45;;;;;;;10.68;6.80;;;;;;;18.08;49.46;100174.34;5052719;28;20048;-42
2024/03/03 11:20:18;;;;;;;10.10;6.70;;;;;;;18.11;48.71;100167.19;5052154;28;20178;-44
2024/03/03 11:23:08;;;;;;;11.18;6.60;;;;;;;18.00;48.32;100171.91;5051997;28;20036;-42